Time;durP1;ratioP1;P1;durP2;ratioP2;P2;SDS_P1;SDS_P2;PMS_P1;PMS_P2;Temp;Humidity;BMP_temperature;BMP_pressure;BME280_temperature;BME280_humidity;BME280_pressure;Samples;Min_cycle;Max_cycle;Signal;HPM_P1;HPM_P2
2022/01/02 00:00:07;;;;;;;11.07;6.60;;;10.80;99.90;;;10.74;73.64;101558.59;4910501;29;20460;-69
2022/01/02 00:02:38;;;;;;;8.60;6.27;;;10.70;99.90;;;10.72;73.81;101561.47;4912949;29;20445;-70
2022/01/02 00:05:10;;;;;;;12.83;6.93;;;10.60;99.90;;;10.68;74.12;101554.78;4914946;29;20406;-69
2022/01/02 00:07:51;;;;;;;9.00;7.50;;;10.60;99.90;;;10.78;73.49;101551.78;4908390;29;20450;-70
2022/01/02 00:10:22;;;;;;;8.47;5.60;;;10.60;99.90;;;10.57;74.20;101538.97;4901547;29;20438;-69
2022/01/02 00:12:55;;;;;;;14.30;7.53;;;10.60;99.90;;;10.57;74.19;101547.09;4899845;29;20982;-68
2022/01/02 00:15:24;;;;;;;11.23;8.17;;;10.50;99.90;;;10.61;74.19;101545.69;4899471;29;20959;-69
2022/01/02 00:17:57;;;;;;;8.87;7.37;;;10.50;99.90;;;10.67;73.64;101538.69;4899396;29;20502;-69
2022/01/02 00:20:32;;;;;;;13.30;7.97;;;10.60;99.90;;;10.57;74.02;101528.16;4899599;29;20752;-70
2022/01/02 00:23:06;;;;;;;11.83;7.40;;;10.50;99.90;;;10.49;74.19;101528.25;4899267;29;20434;-69
2022/01/02 00:25:39;;;;;;;9.93;6.73;;;10.40;99.90;;;10.47;74.57;101519.47;4899092;29;20426;-70
2022/01/02 00:28:08;;;;;;;10.80;6.70;;;10.40;99.90;;;10.32;74.75;101510.50;4898980;29;20431;-69
2022/01/02 00:30:41;;;;;;;19.03;7.90;;;10.30;99.90;;;10.15;75.38;101506.28;4913838;29;20416;-71
2022/01/02 00:33:10;;;;;;;12.07;7.77;;;10.20;99.90;;;10.34;74.77;101503.06;4897188;29;20450;-70
2022/01/02 00:35:39;;;;;;;11.83;8.30;;;10.30;99.90;;;10.20;75.01;101490.38;4897827;29;20447;-68
2022/01/02 00:38:21;;;;;;;7.87;6.60;;;10.20;99.90;;;10.18;75.05;101481.59;4898910;29;20525;-69
2022/01/02 00:40:53;;;;;;;10.07;7.10;;;10.20;99.90;;;10.16;75.10;101475.53;4916647;29;20495;-70
2022/01/02 00:43:31;;;;;;;9.80;7.20;;;10.10;99.90;;;10.01;75.61;101475.50;4898978;29;20851;-70
2022/01/02 00:46:05;;;;;;;15.37;8.17;;;10.00;99.90;;;9.98;75.84;101468.56;4898593;29;20546;-69
2022/01/02 00:48:39;;;;;;;10.27;6.70;;;10.00;99.90;;;9.92;75.89;101471.19;4898997;29;20440;-69
2022/01/02 00:51:21;;;;;;;9.03;7.10;;;9.90;99.90;;;9.96;75.69;101459.81;4898357;29;20233;-71
2022/01/02 00:53:58;;;;;;;8.07;5.87;;;9.90;99.90;;;9.94;75.91;101456.44;4897805;29;20449;-69
2022/01/02 00:56:29;;;;;;;13.73;6.87;;;9.90;99.90;;;9.91;76.00;101448.72;4898359;29;20451;-69
2022/01/02 00:59:04;;;;;;;12.00;8.53;;;9.90;99.90;;;9.80;76.09;101446.44;4898518;29;20441;-69
2022/01/02 01:01:36;;;;;;;11.38;8.02;;;9.80;99.90;;;9.84;76.19;101439.66;4898942;29;20789;-70
2022/01/02 01:04:07;;;;;;;9.13;7.90;;;9.80;99.90;;;9.93;76.29;101430.44;4913287;29;20230;-69
2022/01/02 01:06:41;;;;;;;16.87;8.30;;;9.80;99.90;;;9.88;75.88;101427.44;4898257;29;20502;-71
2022/01/02 01:09:11;;;;;;;10.73;7.03;;;9.80;99.90;;;10.02;75.77;101437.44;4899335;29;21078;-70
2022/01/02 01:11:45;;;;;;;10.00;6.80;;;9.90;99.90;;;9.85;76.21;101438.63;4897266;29;20450;-70
2022/01/02 01:14:14;;;;;;;9.87;7.07;;;9.80;99.90;;;9.97;75.77;101430.91;4898562;29;20409;-69
2022/01/02 01:16:44;;;;;;;16.63;7.90;;;9.90;99.90;;;9.93;76.04;101429.59;4897470;29;20971;-69
2022/01/02 01:19:19;;;;;;;10.97;7.30;;;9.90;99.90;;;10.02;75.48;101425.81;4898220;29;20430;-69
2022/01/02 01:21:48;;;;;;;12.57;7.77;;;9.90;99.90;;;9.99;75.58;101413.47;4898468;29;20763;-68
2022/01/02 01:24:20;;;;;;;11.90;8.20;;;9.90;99.90;;;10.14;75.22;101416.19;4912778;29;20452;-70
2022/01/02 01:26:53;;;;;;;8.93;8.00;;;9.90;99.90;;;9.98;75.41;101411.78;4912323;29;21030;-69
2022/01/02 01:29:21;;;;;;;13.10;8.70;;;9.90;99.90;;;9.89;75.95;101407.50;4912511;29;20536;-70
2022/01/02 01:31:50;;;;;;;11.93;8.10;;;9.90;99.90;;;9.95;75.68;101405.91;4897764;29;20393;-69
2022/01/02 01:34:19;;;;;;;12.07;8.50;;;9.80;99.90;;;10.03;75.40;101403.13;4896735;29;20506;-69
2022/01/02 01:36:47;;;;;;;10.20;7.47;;;9.90;99.90;;;9.83;76.01;101386.59;4897844;29;20758;-68
2022/01/02 01:39:16;;;;;;;11.60;8.50;;;9.80;99.90;;;9.97;76.08;101380.38;4912217;29;20424;-69
2022/01/02 01:41:48;;;;;;;12.13;8.10;;;9.80;99.90;;;10.02;75.67;101385.25;4897182;29;20474;-69
2022/01/02 01:44:38;;;;;;;13.03;7.27;;;9.80;99.90;;;9.97;75.54;101376.84;4898069;29;20911;-69
2022/01/02 01:47:08;;;;;;;12.07;7.67;;;9.90;99.90;;;9.73;76.53;101374.41;4896598;29;21050;-70
2022/01/02 01:49:37;;;;;;;8.93;7.83;;;9.70;99.90;;;9.83;76.22;101361.44;4896712;29;20557;-69
2022/01/02 01:52:05;;;;;;;14.00;9.03;;;9.70;99.90;;;9.95;75.97;101368.91;4897620;29;20920;-69
2022/01/02 01:54:34;;;;;;;10.53;8.30;;;9.70;99.90;;;10.04;75.28;101366.94;4896854;29;20427;-69
2022/01/02 01:57:05;;;;;;;8.57;7.32;;;9.80;99.90;;;9.81;75.87;101344.56;4897658;29;20627;-70
2022/01/02 01:59:36;;;;;;;9.67;7.53;;;9.80;99.90;;;9.72;76.36;101338.44;4896632;29;20198;-71
2022/01/02 02:02:05;;;;;;;12.02;8.65;;;9.70;99.90;;;9.57;76.83;101330.31;4912397;29;20534;-69
2022/01/02 02:04:34;;;;;;;12.07;7.30;;;9.60;99.90;;;9.79;76.13;101325.84;4896623;29;20194;-70
2022/01/02 02:07:02;;;;;;;11.83;8.00;;;9.60;99.90;;;9.81;76.15;101318.38;4912363;29;20322;-70
2022/01/02 02:09:46;;;;;;;14.20;8.97;;;9.70;99.90;;;9.82;75.76;101311.97;4913042;29;20466;-69
2022/01/02 02:12:18;;;;;;;10.57;9.00;;;9.70;99.90;;;9.58;76.73;101314.94;4897294;29;20453;-68
2022/01/02 02:14:48;;;;;;;11.40;8.27;;;9.60;99.90;;;9.67;76.37;101327.34;4897509;29;20449;-70
2022/01/02 02:17:17;;;;;;;8.60;7.70;;;9.60;99.90;;;9.71;76.13;101323.25;4916076;29;20467;-70
2022/01/02 02:19:46;;;;;;;10.30;8.95;;;9.60;99.90;;;9.55;76.51;101312.59;4904108;29;20571;-69
2022/01/02 02:22:17;;;;;;;10.75;9.02;;;9.60;99.90;;;9.44;77.13;101294.97;4903862;29;20258;-70
2022/01/02 02:24:45;;;;;;;12.15;9.48;;;9.40;99.90;;;9.33;77.42;101283.81;4904955;29;20791;-71
2022/01/02 02:27:14;;;;;;;10.40;8.83;;;9.40;99.90;;;9.49;76.98;101286.31;4919353;29;20249;-70
2022/01/02 02:29:43;;;;;;;13.77;8.80;;;9.40;99.90;;;9.34;77.36;101288.19;4903739;29;20976;-70
2022/01/02 02:32:12;;;;;;;11.93;8.15;;;9.30;99.90;;;9.30;77.59;101282.28;4900119;29;20194;-70
2022/01/02 02:34:41;;;;;;;13.90;8.93;;;9.30;99.90;;;9.32;77.46;101279.41;4897306;29;20196;-69
2022/01/02 02:37:09;;;;;;;10.43;7.60;;;9.30;99.90;;;9.25;77.61;101284.72;4911843;29;20249;-69
2022/01/02 02:39:39;;;;;;;17.43;8.77;;;9.20;99.90;;;9.40;77.54;101290.13;4896202;29;20353;-70
2022/01/02 02:42:16;;;;;;;11.23;7.47;;;9.30;99.90;;;9.43;76.85;101287.91;4897837;29;20423;-70
2022/01/02 02:44:46;;;;;;;8.35;7.22;;;9.40;99.90;;;9.31;77.04;101285.84;4896138;29;20208;-69
2022/01/02 02:50:02;;;;;;;9.95;7.00;;;9.20;99.90;;;9.18;77.50;101261.34;4898211;29;20217;-70
2022/01/02 02:52:39;;;;;;;12.27;8.37;;;9.20;99.90;;;9.19;77.46;101242.25;4912858;29;20294;-68
2022/01/02 02:55:10;;;;;;;9.82;8.93;;;9.10;99.90;;;9.25;77.42;101246.06;4897618;29;20456;-69
2022/01/02 02:57:39;;;;;;;13.40;9.13;;;9.20;99.90;;;9.27;77.17;101242.16;4896826;29;20217;-68
2022/01/02 03:00:10;;;;;;;12.60;8.55;;;9.20;99.90;;;9.23;77.19;101238.16;4911249;29;20249;-69
2022/01/02 03:02:38;;;;;;;9.60;7.20;;;9.20;99.90;;;9.19;77.59;101236.84;4911332;29;20234;-69
2022/01/02 03:05:08;;;;;;;9.00;8.10;;;9.10;99.90;;;9.35;76.95;101220.47;4910959;29;20448;-69
2022/01/02 03:07:37;;;;;;;9.48;8.18;;;9.20;99.90;;;9.22;77.34;101227.53;4911171;29;20437;-70
2022/01/02 03:10:10;;;;;;;10.18;8.20;;;9.20;99.90;;;9.25;77.13;101224.44;4896944;29;20301;-70
2022/01/02 03:12:39;;;;;;;11.55;8.32;;;9.20;99.90;;;9.22;77.11;101203.22;4913321;29;20254;-68
2022/01/02 03:15:08;;;;;;;8.93;6.97;;;9.20;99.90;;;9.33;76.85;101205.47;4895176;29;20694;-70
2022/01/02 03:17:37;;;;;;;12.57;8.37;;;9.20;99.90;;;9.20;77.36;101199.91;4896509;29;20289;-70
2022/01/02 03:20:06;;;;;;;11.32;7.57;;;9.20;99.90;;;9.21;77.15;101185.34;4911051;29;20888;-69
2022/01/02 03:22:35;;;;;;;10.52;7.18;;;9.10;99.90;;;9.30;76.76;101181.53;4911036;29;20198;-69
2022/01/02 03:25:04;;;;;;;7.63;6.82;;;9.20;99.90;;;9.33;76.45;101190.13;4910449;29;20200;-67
2022/01/02 03:27:34;;;;;;;10.60;7.35;;;9.20;99.90;;;9.31;76.80;101202.13;4896042;29;20209;-70
2022/01/02 03:30:06;;;;;;;8.10;7.22;;;9.20;99.90;;;9.25;77.08;101214.50;4911301;29;20214;-70
2022/01/02 03:32:34;;;;;;;15.10;6.80;;;9.20;99.90;;;9.12;77.15;101201.66;4896246;29;20248;-69
2022/01/02 03:35:05;;;;;;;11.65;7.95;;;9.10;99.90;;;9.04;77.53;101193.66;4911346;29;20224;-69
2022/01/02 03:37:33;;;;;;;10.65;7.35;;;9.10;99.90;;;9.10;77.62;101197.47;4913468;29;20722;-69
2022/01/02 03:40:07;;;;;;;10.48;8.02;;;9.00;99.90;;;9.05;77.62;101192.59;4898659;29;20675;-70
2022/01/02 03:42:37;;;;;;;11.18;8.30;;;9.00;99.90;;;9.20;77.20;101187.22;4901025;29;20265;-70
2022/01/02 03:45:09;;;;;;;11.52;7.57;;;9.10;99.90;;;9.20;77.14;101175.59;4900712;29;20224;-68
2022/01/02 03:47:38;;;;;;;9.75;7.60;;;9.10;99.90;;;9.14;77.23;101177.19;4913189;29;20241;-69
2022/01/02 03:50:10;;;;;;;12.55;8.82;;;9.00;99.90;;;9.16;77.17;101165.16;4896561;29;20199;-69
2022/01/02 03:52:39;;;;;;;8.73;6.85;;;9.10;99.90;;;9.20;76.97;101151.28;4895186;29;20194;-69
2022/01/02 03:55:10;;;;;;;10.63;8.13;;;9.10;99.90;;;9.10;77.47;101152.38;4896459;29;20198;-69
2022/01/02 03:57:40;;;;;;;9.88;7.80;;;9.10;99.90;;;9.15;77.29;101143.72;4911454;29;20225;-67
2022/01/02 04:00:13;;;;;;;10.05;7.85;;;9.10;99.90;;;9.14;77.35;101153.72;4896976;29;20202;-69
2022/01/02 04:02:43;;;;;;;11.50;7.82;;;9.10;99.90;;;9.13;77.12;101145.78;4912854;29;20221;-68
2022/01/02 04:05:16;;;;;;;11.90;8.55;;;9.10;99.90;;;9.10;77.59;101144.28;4896554;29;20198;-70
2022/01/02 04:07:48;;;;;;;11.30;9.70;;;9.00;99.90;;;9.03;77.61;101135.28;4897875;29;20299;-70
2022/01/02 04:10:19;;;;;;;10.20;9.20;;;9.00;99.90;;;9.32;76.55;101136.28;4898844;29;20221;-70
2022/01/02 04:12:49;;;;;;;8.50;6.80;;;9.10;99.90;;;9.25;77.17;101144.28;4899981;29;20197;-70
2022/01/02 04:15:18;;;;;;;8.93;6.90;;;9.10;99.90;;;9.43;76.60;101146.63;4899556;29;20218;-70
2022/01/02 04:17:47;;;;;;;14.07;7.10;;;9.20;99.90;;;9.35;76.83;101147.53;4899713;29;20866;-69
2022/01/02 04:20:17;;;;;;;12.50;7.90;;;9.20;99.90;;;9.32;76.97;101145.22;4915540;29;20450;-70
2022/01/02 04:22:46;;;;;;;8.73;7.82;;;9.20;99.90;;;9.11;77.59;101142.44;4899876;29;20186;-70
2022/01/02 04:25:15;;;;;;;9.27;6.88;;;9.10;99.90;;;9.37;76.66;101160.84;4913522;29;20233;-69
2022/01/02 04:27:44;;;;;;;9.38;7.35;;;9.20;99.90;;;9.28;76.82;101170.09;4899410;29;20711;-69
2022/01/02 04:30:15;;;;;;;12.38;8.70;;;9.20;99.90;;;9.26;77.08;101162.16;4913490;29;20245;-70
2022/01/02 04:32:43;;;;;;;9.68;8.77;;;9.20;99.90;;;9.21;77.14;101164.59;4899358;29;20644;-68
2022/01/02 04:35:12;;;;;;;17.67;9.25;;;9.20;99.90;;;9.19;77.57;101157.72;4897807;29;20238;-70
2022/01/02 04:37:41;;;;;;;13.48;9.18;;;9.10;99.90;;;9.25;77.17;101155.09;4899026;29;20282;-68
2022/01/02 04:40:10;;;;;;;15.70;8.30;;;9.10;99.90;;;9.19;77.18;101155.00;4914094;29;20545;-70
2022/01/02 04:42:39;;;;;;;12.82;9.15;;;9.10;99.90;;;9.22;77.61;101150.06;4913693;29;20191;-69
2022/01/02 04:45:09;;;;;;;11.65;10.35;;;9.10;99.90;;;9.13;77.29;101146.63;4897323;29;20198;-70
2022/01/02 04:47:39;;;;;;;9.98;8.95;;;9.10;99.90;;;9.04;77.89;101153.16;4913120;29;20230;-69
2022/01/02 04:50:10;;;;;;;9.63;8.73;;;9.00;99.90;;;9.13;77.58;101145.78;4897890;29;20576;-69
2022/01/02 04:52:38;;;;;;;9.38;8.50;;;9.00;99.90;;;9.10;77.69;101157.78;4898939;29;20258;-69
2022/01/02 04:55:08;;;;;;;16.08;10.15;;;9.00;99.90;;;9.16;77.61;101167.00;4897401;29;20205;-70
2022/01/02 04:57:37;;;;;;;11.02;9.93;;;9.00;99.90;;;8.99;78.16;101162.81;4897356;29;20352;-70
2022/01/02 05:00:08;;;;;;;10.20;9.20;;;9.00;99.90;;;9.01;78.29;101152.66;4912927;29;20194;-70
2022/01/02 05:02:36;;;;;;;11.63;8.23;;;8.90;99.90;;;8.96;78.19;101147.81;4898579;29;20170;-69
2022/01/02 05:05:09;;;;;;;14.25;7.25;;;8.90;99.90;;;9.07;77.88;101135.72;4898768;29;20661;-69
2022/01/02 05:07:37;;;;;;;12.40;9.07;;;9.00;99.90;;;8.88;78.39;101126.34;4898674;29;20289;-69
2022/01/02 05:10:07;;;;;;;15.13;9.20;;;8.90;99.90;;;8.88;78.55;101120.09;4897131;29;20553;-68
2022/01/02 05:12:35;;;;;;;14.13;9.55;;;8.90;99.90;;;8.84;78.51;101129.59;4898273;29;20210;-70
2022/01/02 05:15:06;;;;;;;10.18;9.10;;;8.80;99.90;;;8.71;78.92;101124.84;4916973;29;20198;-69
2022/01/02 05:17:35;;;;;;;12.80;9.85;;;8.70;99.90;;;8.61;79.53;101121.56;4906280;29;20224;-70
2022/01/02 05:20:05;;;;;;;11.25;9.32;;;8.70;99.90;;;8.68;79.54;101114.41;4905635;29;20198;-69
2022/01/02 05:22:36;;;;;;;14.32;11.30;;;8.60;99.90;;;8.56;79.91;101110.50;4921077;29;20194;-69
2022/01/02 05:25:07;;;;;;;16.80;10.80;;;8.60;99.90;;;8.69;79.65;101110.69;4901292;29;20227;-69
2022/01/02 05:27:36;;;;;;;21.50;12.30;;;8.60;99.90;;;8.48;79.94;101091.66;4902811;29;20210;-69
2022/01/02 05:30:06;;;;;;;15.07;13.20;;;8.60;99.90;;;8.53;80.14;101079.31;4900881;29;20202;-70
2022/01/02 05:32:34;;;;;;;14.57;12.05;;;8.60;99.90;;;8.57;80.56;101074.38;4914669;29;20222;-70
2022/01/02 05:35:03;;;;;;;13.98;12.68;;;8.60;99.90;;;8.75;79.81;101066.78;4914891;29;20300;-69
2022/01/02 05:37:31;;;;;;;14.68;12.63;;;8.60;99.90;;;8.63;80.08;101065.56;4926543;23;20224;-72
2022/01/02 05:40:01;;;;;;;12.70;11.43;;;8.60;99.90;;;8.64;80.38;101061.84;4937815;29;20251;-71
2022/01/02 05:42:30;;;;;;;14.48;10.82;;;8.60;99.90;;;8.75;80.19;101057.84;4934272;29;20197;-72
2022/01/02 05:44:59;;;;;;;8.75;7.85;;;8.60;99.90;;;8.87;79.66;101069.84;4933116;29;20207;-70
2022/01/02 05:47:28;;;;;;;12.43;8.80;;;8.70;99.90;;;8.69;79.64;101072.91;4933373;29;20243;-72
2022/01/02 05:49:58;;;;;;;13.98;7.90;;;8.70;99.90;;;8.75;79.78;101066.78;4932984;29;20219;-70
2022/01/02 05:52:26;;;;;;;11.38;9.05;;;8.70;99.90;;;8.74;79.90;101054.31;4933214;29;20230;-71
2022/01/02 05:54:55;;;;;;;11.60;8.13;;;8.70;99.90;;;8.78;79.80;101047.50;4933582;29;20256;-71
2022/01/02 05:57:26;;;;;;;10.38;7.90;;;8.70;99.90;;;8.76;79.80;101040.66;4935242;29;20259;-71
2022/01/02 05:59:54;;;;;;;11.13;8.18;;;8.70;99.90;;;8.65;80.18;101045.47;4934022;29;20219;-71
2022/01/02 06:02:23;;;;;;;12.18;9.13;;;8.70;99.90;;;8.60;80.56;101052.44;4935117;29;20192;-72
2022/01/02 06:04:52;;;;;;;11.32;9.45;;;8.60;99.90;;;8.72;79.96;101051.78;4935298;29;20699;-70
2022/01/02 06:07:20;;;;;;;13.27;9.88;;;8.60;99.90;;;8.60;80.51;101037.09;4932827;29;20727;-70
2022/01/02 06:09:49;;;;;;;14.32;10.13;;;8.60;99.90;;;8.48;81.23;101027.78;4933298;29;20668;-70
2022/01/02 06:12:18;;;;;;;12.73;10.00;;;8.50;99.90;;;8.58;80.94;101014.03;4932597;28;20213;-70
2022/01/02 06:14:47;;;;;;;12.98;11.68;;;8.60;99.90;;;8.67;80.92;101021.84;4933601;29;20189;-71
2022/01/02 06:17:16;;;;;;;14.35;9.63;;;8.60;99.90;;;8.73;80.37;101025.66;4934345;29;20738;-70
2022/01/02 06:19:44;;;;;;;10.82;8.10;;;8.60;99.90;;;8.67;80.81;101018.28;4933523;29;20201;-73
2022/01/02 06:22:13;;;;;;;11.20;8.80;;;8.60;99.90;;;8.74;80.66;101016.53;4933878;29;20220;-71
2022/01/02 06:24:42;;;;;;;10.82;7.75;;;8.70;99.90;;;8.87;79.89;101014.00;4934334;29;20220;-70
2022/01/02 06:27:10;;;;;;;18.80;7.40;;;8.70;99.90;;;8.89;80.12;101011.13;4932636;29;20203;-71
2022/01/02 06:29:39;;;;;;;10.18;7.97;;;8.80;99.90;;;8.91;80.16;101017.16;4933878;29;20245;-72
2022/01/02 06:32:09;;;;;;;10.45;8.00;;;8.80;99.90;;;8.93;80.03;101009.72;4934564;29;20212;-71
2022/01/02 06:34:38;;;;;;;10.65;8.30;;;8.80;99.90;;;8.94;79.99;101012.25;4935926;29;20613;-72
2022/01/02 06:37:06;;;;;;;11.15;7.55;;;8.90;99.90;;;9.06;79.96;101005.31;4935258;29;20208;-72
2022/01/02 06:39:35;;;;;;;12.90;8.13;;;8.90;99.90;;;8.97;79.94;101002.91;4934613;29;20196;-73
2022/01/02 06:42:06;;;;;;;10.35;9.23;;;8.90;99.90;;;9.06;79.85;100999.06;4932510;29;20432;-71
2022/01/02 06:44:38;;;;;;;9.38;7.25;;;8.90;99.90;;;9.20;79.25;101006.28;4933342;29;20203;-71
2022/01/02 06:47:08;;;;;;;9.73;7.68;;;9.10;99.90;;;9.09;79.64;100988.75;4933379;29;20204;-70
2022/01/02 06:49:38;;;;;;;9.98;8.18;;;9.00;99.90;;;9.30;79.54;101000.59;4933502;29;20627;-72
2022/01/02 06:52:08;;;;;;;13.68;8.95;;;9.10;99.90;;;9.18;79.38;100997.56;4934712;29;20319;-72
2022/01/02 06:54:37;;;;;;;17.40;8.18;;;9.10;99.90;;;9.06;79.84;100997.22;4932908;29;20602;-70
2022/01/02 06:57:06;;;;;;;10.82;8.50;;;9.00;99.90;;;9.28;79.59;101002.66;4934430;29;20660;-71
2022/01/02 06:59:34;;;;;;;11.90;8.90;;;9.10;99.90;;;9.39;78.97;101004.88;4933559;29;20193;-71
2022/01/02 07:02:02;;;;;;;9.52;7.20;;;9.20;99.90;;;9.33;79.48;100960.56;4934194;29;20939;-71
2022/01/02 07:04:33;;;;;;;10.10;8.07;;;9.20;99.90;;;9.56;78.53;100969.28;4934049;29;20292;-72
2022/01/02 07:07:02;;;;;;;14.00;8.20;;;9.30;99.90;;;9.47;78.67;100958.81;4934050;23;20232;-68
2022/01/02 07:09:32;;;;;;;12.48;9.38;;;9.30;99.90;;;9.60;78.33;100961.63;4896047;29;20690;-68
2022/01/02 07:12:01;;;;;;;9.75;8.13;;;9.40;99.90;;;9.57;78.35;100959.31;4896554;29;20225;-68
2022/01/02 07:14:30;;;;;;;11.95;7.57;;;9.40;99.90;;;9.62;78.11;100966.84;4897325;29;20578;-67
2022/01/02 07:17:01;;;;;;;9.00;6.75;;;9.50;99.90;;;9.73;77.96;100967.13;4897074;29;20290;-67
2022/01/02 07:19:29;;;;;;;11.63;7.43;;;9.50;99.90;;;9.82;77.60;100974.09;4896944;29;20676;-67
2022/01/02 07:22:00;;;;;;;10.97;7.40;;;9.60;99.90;;;9.64;77.84;100962.06;5019671;23;20917;-65
2022/01/02 07:24:29;;;;;;;7.97;6.80;;;9.50;99.90;;;9.81;77.65;100972.44;4898127;29;20916;-65
2022/01/02 07:26:57;;;;;;;8.70;7.00;;;9.60;99.90;;;9.78;77.73;100967.38;4897596;29;20432;-65
2022/01/02 07:29:26;;;;;;;8.57;6.37;;;9.60;99.90;;;9.79;77.70;100979.88;4897384;29;20410;-65
2022/01/02 07:31:55;;;;;;;9.50;7.63;;;9.60;99.90;;;9.55;78.56;100962.22;4897379;29;20432;-65
2022/01/02 07:34:23;;;;;;;12.67;8.10;;;9.50;99.90;;;9.58;78.68;100956.41;4897454;29;20438;-65
2022/01/02 07:36:52;;;;;;;14.17;7.70;;;9.50;99.90;;;9.93;77.86;100964.59;4897758;29;20447;-66
2022/01/02 07:39:22;;;;;;;11.15;8.10;;;9.70;99.90;;;9.85;77.58;100965.59;4897628;29;20777;-66
2022/01/02 07:41:51;;;;;;;10.47;6.93;;;9.70;99.90;;;9.83;78.04;100962.25;4897066;29;20604;-66
2022/01/02 07:44:26;;;;;;;11.20;7.87;;;9.70;99.90;;;9.90;77.91;100965.84;4899757;29;21026;-66
2022/01/02 07:46:55;;;;;;;11.65;9.40;;;9.70;99.90;;;9.77;78.67;100981.97;4900918;29;20419;-66
2022/01/02 07:49:23;;;;;;;14.63;8.33;;;9.70;99.90;;;9.86;78.11;100974.53;4900775;29;20682;-66
2022/01/02 07:51:52;;;;;;;12.00;9.90;;;9.70;99.90;;;9.64;78.46;100976.41;4901268;29;20497;-65
2022/01/02 07:54:22;;;;;;;9.57;8.67;;;9.60;99.90;;;9.62;79.41;100962.28;4900832;29;20183;-66
2022/01/02 07:56:50;;;;;;;10.83;8.60;;;9.60;99.90;;;9.82;78.18;100952.47;4900667;29;20415;-65
2022/01/02 07:59:19;;;;;;;8.90;8.00;;;9.60;99.90;;;9.80;78.30;100948.28;4901123;29;20541;-65
2022/01/02 08:01:47;;;;;;;12.57;6.50;;;9.70;99.90;;;9.76;78.10;100937.03;4900626;29;20421;-66
2022/01/02 08:04:16;;;;;;;7.83;6.03;;;9.70;99.90;;;9.97;77.40;100945.09;4900543;29;20431;-66
2022/01/02 08:06:45;;;;;;;9.60;6.50;;;9.70;99.90;;;10.04;77.00;100948.69;4900711;29;20470;-66
2022/01/02 08:09:13;;;;;;;8.00;6.37;;;9.80;99.90;;;10.13;76.88;100960.19;4900752;29;20592;-66
2022/01/02 08:11:43;;;;;;;6.40;5.80;;;9.90;99.90;;;10.11;76.93;100953.31;4900340;29;20496;-66
2022/01/02 08:14:16;;;;;;;9.35;5.50;;;9.90;99.90;;;10.06;76.95;100947.66;4900396;29;20477;-66
2022/01/02 08:16:45;;;;;;;7.33;6.00;;;9.90;99.90;;;9.95;77.32;100947.16;4900374;29;20234;-64
2022/01/02 08:19:14;;;;;;;9.20;6.03;;;9.90;99.90;;;10.24;76.66;100946.16;4900399;29;20423;-67
2022/01/02 08:21:42;;;;;;;7.40;5.70;;;10.00;99.90;;;10.36;75.97;100941.84;4900554;29;20470;-66
2022/01/02 08:24:11;;;;;;;6.70;5.07;;;10.10;99.90;;;10.39;76.03;100946.03;4900267;29;20419;-67
2022/01/02 08:26:40;;;;;;;10.70;6.70;;;10.10;99.90;;;10.49;75.56;100938.38;4900261;29;20422;-66
2022/01/02 08:29:10;;;;;;;8.05;5.25;;;10.20;99.90;;;10.55;75.35;100937.59;4900110;29;20529;-66
2022/01/02 08:31:40;;;;;;;10.03;5.47;;;10.30;99.90;;;10.59;75.23;100936.16;4900220;29;20646;-66
2022/01/02 08:34:09;;;;;;;8.43;5.80;;;10.40;99.90;;;10.63;75.22;100929.28;4900092;29;20509;-66
2022/01/02 08:39:14;;;;;;;7.93;5.50;;;10.50;99.90;;;10.71;75.15;100922.84;4888804;29;20843;-64
2022/01/02 08:41:42;;;;;;;6.70;5.00;;;10.50;99.90;;;10.73;75.55;100920.78;4887922;29;20470;-64
2022/01/02 08:44:12;;;;;;;12.60;7.63;;;10.50;99.90;;;10.86;75.32;100913.53;4890353;29;20423;-66
2022/01/02 08:46:40;;;;;;;8.63;6.20;;;10.60;99.90;;;10.78;75.56;100919.16;4888213;29;20431;-64
2022/01/02 08:49:08;;;;;;;9.13;5.50;;;10.60;99.90;;;10.90;75.38;100925.63;4889209;29;20529;-65
2022/01/02 08:51:37;;;;;;;9.30;5.53;;;10.60;99.90;;;10.79;75.93;100910.00;4907122;23;20501;-79
2022/01/02 08:54:07;;;;;;;6.30;5.10;;;10.60;99.90;;;11.02;75.19;100919.63;4919613;29;20445;-78
2022/01/02 08:56:37;;;;;;;6.90;5.60;;;10.80;99.90;;;10.98;75.53;100904.84;4919649;29;20421;-78
2022/01/02 08:59:06;;;;;;;11.53;6.13;;;10.80;99.90;;;10.89;75.97;100906.91;4918808;29;20557;-78
2022/01/02 09:01:38;;;;;;;9.20;6.03;;;10.80;99.90;;;11.05;76.02;100911.09;4918690;29;20445;-78
2022/01/02 09:04:22;;;;;;;7.50;6.87;;;10.80;99.90;;;11.09;76.26;100913.19;4920214;29;20556;-78
2022/01/02 09:07:33;;;;;;;11.23;6.60;;;10.80;99.90;;;11.01;76.07;100890.88;4916607;29;20457;-79
2022/01/02 09:10:35;;;;;;;12.10;8.70;;;10.80;1.00;;;10.81;76.42;100888.13;4916876;29;20441;-77
2022/01/02 09:13:23;;;;;;;11.97;6.93;;;10.80;1.00;;;11.06;76.06;100889.22;4916274;29;20996;-78
2022/01/02 09:17:02;;;;;;;11.63;8.80;;;10.80;1.00;;;11.14;76.00;100890.91;4917371;29;20461;-80
2022/01/02 09:19:32;;;;;;;10.00;7.63;;;10.90;1.00;;;11.40;75.33;100888.22;4922731;29;20996;-78
2022/01/02 09:22:26;;;;;;;11.47;7.40;;;11.10;99.90;;;11.46;74.97;100892.00;4917150;29;20858;-77
2022/01/02 09:25:28;;;;;;;10.27;8.13;;;11.10;99.90;;;11.32;75.50;100889.28;4916837;29;20446;-78
2022/01/02 09:27:57;;;;;;;10.03;6.77;;;11.10;99.90;;;11.49;75.05;100884.28;4925017;29;20445;-78
2022/01/02 09:30:28;;;;;;;9.23;6.83;;;11.20;99.90;;;11.43;75.34;100876.13;4921653;29;20436;-77
2022/01/02 09:32:59;;;;;;;6.30;5.37;;;11.30;99.90;;;11.41;75.32;100880.94;4919614;29;20525;-78
2022/01/02 09:35:29;;;;;;;7.10;5.47;;;11.20;99.90;;;11.56;75.24;100882.41;4922215;29;20512;-77
2022/01/02 09:37:58;;;;;;;9.63;6.53;;;11.30;99.90;;;11.53;75.29;100877.38;4919407;29;20466;-77
2022/01/02 09:40:27;;;;;;;8.73;6.17;;;11.30;99.90;;;11.60;75.35;100872.81;4922399;29;20478;-77
2022/01/02 09:42:57;;;;;;;7.33;5.03;;;11.30;99.90;;;11.59;75.09;100870.31;4919883;29;20445;-79
2022/01/02 09:45:26;;;;;;;7.67;5.70;;;11.40;99.90;;;11.50;75.49;100852.59;4917564;29;20505;-77
2022/01/02 09:47:57;;;;;;;8.47;5.33;;;11.30;99.90;;;11.58;76.06;100866.75;4918814;29;20428;-77
2022/01/02 09:50:26;;;;;;;10.43;5.47;;;11.30;99.90;;;11.66;75.19;100855.72;4920143;29;20433;-77
2022/01/02 09:52:54;;;;;;;8.03;4.93;;;11.50;99.90;;;11.52;75.91;100848.59;4920790;29;20513;-77
2022/01/02 09:55:23;;;;;;;7.47;5.27;;;11.40;99.90;;;11.90;75.06;100865.09;4923336;29;20411;-77
2022/01/02 09:57:53;;;;;;;7.43;5.30;;;11.60;99.90;;;11.83;75.29;100860.72;4922222;29;20499;-77
2022/01/02 10:00:22;;;;;;;13.47;5.43;;;11.60;99.90;;;11.91;75.28;100852.38;4917770;29;20441;-78
2022/01/02 10:03:04;;;;;;;9.93;4.70;;;11.70;99.90;;;12.14;74.62;100847.31;4919362;29;20426;-78
2022/01/02 10:05:53;;;;;;;7.47;5.13;;;11.80;99.90;;;12.18;74.27;100843.94;4916867;29;20461;-78
2022/01/02 10:08:26;;;;;;;6.60;4.70;;;11.90;66.60;;;12.16;74.71;100847.91;4919543;29;20553;-77
2022/01/02 10:11:08;;;;;;;8.10;4.33;;;11.90;75.80;;;12.12;74.73;100838.53;4917855;29;20433;-78
2022/01/02 10:13:40;;;;;;;6.30;4.60;;;11.90;88.20;;;11.87;75.23;100832.13;4916703;29;20441;-77
2022/01/02 10:16:23;;;;;;;8.37;6.33;;;11.80;45.60;;;12.01;75.14;100825.63;4915577;29;20437;-78
2022/01/02 10:18:56;;;;;;;7.03;4.80;;;11.80;99.90;;;11.93;75.18;100818.56;4918117;29;20473;-79
2022/01/02 10:21:37;;;;;;;6.57;4.87;;;11.70;99.90;;;12.14;74.56;100818.28;4917468;29;20500;-76
2022/01/02 10:24:21;;;;;;;8.53;5.60;;;11.80;99.90;;;12.09;74.68;100806.41;4918657;29;20508;-77
2022/01/02 10:27:15;;;;;;;13.13;6.70;;;11.80;66.00;;;12.24;74.46;100798.84;4916555;29;20446;-78
2022/01/02 10:29:50;;;;;;;13.53;8.73;;;11.90;69.80;;;12.35;74.24;100781.03;4916515;29;20525;-78
2022/01/02 10:32:33;;;;;;;8.87;6.93;;;12.00;78.60;;;12.28;74.52;100791.94;4916841;29;20421;-78
2022/01/02 10:35:13;;;;;;;12.43;8.67;;;12.00;39.20;;;12.30;74.51;100778.13;4915632;29;20449;-77
2022/01/02 10:37:44;;;;;;;11.43;8.27;;;12.00;5.90;;;12.27;74.55;100774.00;4915497;29;20440;-78
2022/01/02 10:40:32;;;;;;;9.77;6.13;;;12.00;44.70;;;12.37;74.23;100768.94;4914387;29;20506;-76